Time;durP1;ratioP1;P1;durP2;ratioP2;P2;SDS_P1;SDS_P2;PMS_P1;PMS_P2;Temp;Humidity;BMP_temperature;BMP_pressure;BME280_temperature;BME280_humidity;BME280_pressure;Samples;Min_cycle;Max_cycle;Signal;HPM_P1;HPM_P2
2021/10/24 00:01:36;;;;;;;28.02;26.13;;;4.60;90.80;;;;;;5026841;28;20301;-69
2021/10/24 00:04:03;;;;;;;29.13;27.13;;;4.50;91.00;;;;;;5025456;28;20193;-69
2021/10/24 00:06:30;;;;;;;31.20;28.83;;;4.50;91.10;;;;;;5026788;28;20655;-69
2021/10/24 00:08:57;;;;;;;29.92;27.65;;;4.50;90.80;;;;;;5020967;28;20216;-69
2021/10/24 00:11:24;;;;;;;30.73;28.40;;;4.60;91.40;;;;;;5026197;28;20259;-69
2021/10/24 00:13:52;;;;;;;29.92;27.63;;;4.50;91.40;;;;;;5025617;28;20289;-69
2021/10/24 00:16:19;;;;;;;30.25;27.83;;;4.50;91.90;;;;;;5026561;28;21168;-68
2021/10/24 00:18:47;;;;;;;30.40;28.00;;;4.50;91.70;;;;;;5025855;28;20284;-69
2021/10/24 00:21:14;;;;;;;29.50;27.52;;;4.60;91.40;;;;;;5026536;28;20229;-69
2021/10/24 00:23:41;;;;;;;28.17;26.33;;;4.60;90.60;;;;;;5024548;28;20198;-69
2021/10/24 00:26:08;;;;;;;28.63;26.73;;;4.50;90.60;;;;;;5030578;28;20201;-69
2021/10/24 00:28:35;;;;;;;30.30;28.10;;;4.40;91.70;;;;;;5026018;28;20287;-69
2021/10/24 00:31:03;;;;;;;28.52;26.58;;;4.40;92.20;;;;;;5029603;28;20221;-69
2021/10/24 00:33:30;;;;;;;28.83;26.50;;;4.40;92.80;;;;;;5028571;28;20406;-69
2021/10/24 00:35:57;;;;;;;27.67;25.80;;;4.40;92.20;;;;;;5030122;28;20197;-69
2021/10/24 00:38:24;;;;;;;63.13;30.98;;;4.30;93.10;;;;;;5026766;28;20512;-69
2021/10/24 00:40:50;;;;;;;29.10;26.95;;;4.40;92.30;;;;;;5028617;28;20582;-69
2021/10/24 00:43:17;;;;;;;28.75;26.90;;;4.40;93.00;;;;;;5027724;28;20227;-69
2021/10/24 00:45:44;;;;;;;29.45;27.33;;;4.30;92.60;;;;;;5029690;28;20201;-68
2021/10/24 00:48:13;;;;;;;28.05;26.20;;;4.30;92.40;;;;;;5028530;28;20679;-69
2021/10/24 00:50:41;;;;;;;28.70;26.70;;;4.30;91.70;;;;;;5028932;28;20657;-69
2021/10/24 00:53:11;;;;;;;28.80;26.90;;;4.20;91.60;;;;;;5028431;28;20193;-70
2021/10/24 00:55:38;;;;;;;27.67;25.85;;;4.20;93.20;;;;;;5030388;28;20552;-70
2021/10/24 00:58:06;;;;;;;28.08;25.98;;;4.20;92.70;;;;;;5028297;28;20299;-70
2021/10/24 01:00:34;;;;;;;29.05;26.55;;;4.30;91.60;;;;;;5026483;28;20532;-70
2021/10/24 01:03:02;;;;;;;29.42;27.05;;;4.30;91.40;;;;;;5028380;28;20307;-70
2021/10/24 01:05:31;;;;;;;27.38;25.45;;;4.20;90.90;;;;;;5027172;28;20196;-69
2021/10/24 01:08:00;;;;;;;27.63;25.75;;;4.10;91.50;;;;;;5021856;28;20202;-70
2021/10/24 01:10:27;;;;;;;27.50;25.50;;;4.10;91.50;;;;;;5023424;28;20229;-70
2021/10/24 01:12:53;;;;;;;28.10;26.10;;;4.10;91.00;;;;;;5028172;28;20217;-70
2021/10/24 01:15:23;;;;;;;28.40;26.42;;;4.00;91.00;;;;;;5026511;28;20557;-70
2021/10/24 01:17:50;;;;;;;114.30;32.80;;;4.10;90.80;;;;;;5030787;28;20667;-70
2021/10/24 01:20:19;;;;;;;28.35;26.23;;;4.00;90.90;;;;;;5028657;28;20276;-70
2021/10/24 01:22:48;;;;;;;28.13;26.05;;;3.90;92.00;;;;;;5029532;28;20249;-70
2021/10/24 01:25:15;;;;;;;28.30;26.45;;;3.90;91.50;;;;;;5028699;28;20284;-70
2021/10/24 01:27:43;;;;;;;28.52;26.27;;;3.90;91.10;;;;;;5030413;28;20465;-70
2021/10/24 01:30:10;;;;;;;29.15;27.05;;;3.90;91.10;;;;;;5028170;28;20560;-68
2021/10/24 01:32:40;;;;;;;28.77;26.77;;;3.90;91.40;;;;;;5029775;28;20221;-68
2021/10/24 01:35:08;;;;;;;28.38;26.23;;;3.80;91.90;;;;;;5025210;28;20717;-69
2021/10/24 01:37:38;;;;;;;28.98;26.98;;;3.80;91.90;;;;;;5023906;28;20220;-69
2021/10/24 01:40:10;;;;;;;28.45;26.35;;;3.80;91.90;;;;;;5026280;28;20271;-68
2021/10/24 01:42:49;;;;;;;29.42;27.10;;;3.90;92.20;;;;;;5027544;28;20229;-69
2021/10/24 01:45:17;;;;;;;27.30;25.40;;;3.90;91.20;;;;;;5027651;28;20225;-69
2021/10/24 01:47:44;;;;;;;28.40;26.40;;;3.80;90.90;;;;;;5029307;28;20303;-69
2021/10/24 01:50:12;;;;;;;28.25;26.27;;;3.70;91.30;;;;;;5024448;28;20229;-69
2021/10/24 01:52:44;;;;;;;27.83;25.80;;;3.70;91.80;;;;;;5029114;28;20564;-68
2021/10/24 01:55:14;;;;;;;28.50;26.48;;;3.70;91.80;;;;;;5022064;28;20207;-70
2021/10/24 01:57:43;;;;;;;27.55;25.45;;;3.70;92.30;;;;;;5029678;28;20212;-70
2021/10/24 02:00:11;;;;;;;28.17;26.33;;;3.70;92.00;;;;;;5026526;28;20276;-70
2021/10/24 02:02:38;;;;;;;30.35;27.80;;;3.70;91.60;;;;;;5025779;28;20213;-70
2021/10/24 02:05:06;;;;;;;27.35;25.08;;;3.60;91.80;;;;;;5026316;28;20703;-70
2021/10/24 02:07:33;;;;;;;26.90;25.10;;;3.60;91.60;;;;;;5029316;28;20190;-70
2021/10/24 02:10:00;;;;;;;28.95;26.85;;;3.60;91.60;;;;;;5028044;28;20225;-70
2021/10/24 02:12:29;;;;;;;28.35;26.35;;;3.60;91.80;;;;;;5026046;28;20228;-70
2021/10/24 02:14:56;;;;;;;28.90;26.40;;;3.60;91.90;;;;;;5025792;28;20274;-72
2021/10/24 02:17:22;;;;;;;28.15;26.35;;;3.60;91.80;;;;;;5025229;28;20201;-69
2021/10/24 02:19:50;;;;;;;28.13;26.13;;;3.60;91.90;;;;;;5026580;28;20284;-68
2021/10/24 02:22:17;;;;;;;28.15;26.23;;;3.60;91.40;;;;;;5023142;28;20214;-68
2021/10/24 02:24:44;;;;;;;28.52;26.60;;;3.60;91.30;;;;;;5026705;28;20671;-68
2021/10/24 02:27:11;;;;;;;30.02;27.55;;;3.60;91.20;;;;;;5028940;28;20197;-70
2021/10/24 02:29:39;;;;;;;27.60;25.80;;;3.50;91.20;;;;;;5018761;28;20239;-69
2021/10/24 02:32:07;;;;;;;27.42;25.50;;;3.50;91.40;;;;;;5029581;28;20701;-69
2021/10/24 02:34:34;;;;;;;27.23;25.25;;;3.40;91.80;;;;;;5027685;28;20203;-69
2021/10/24 02:37:01;;;;;;;29.27;27.42;;;3.40;91.90;;;;;;5029370;28;20200;-69
2021/10/24 02:39:27;;;;;;;27.08;25.02;;;3.40;92.00;;;;;;5025686;28;20197;-68
2021/10/24 02:41:54;;;;;;;27.65;25.75;;;3.30;91.70;;;;;;5023528;28;20261;-69
2021/10/24 02:44:22;;;;;;;28.90;26.80;;;3.40;91.80;;;;;;5016871;28;20288;-69
2021/10/24 02:46:51;;;;;;;27.77;25.92;;;3.40;91.30;;;;;;5028889;28;20208;-69
2021/10/24 02:49:18;;;;;;;28.98;26.88;;;3.30;91.60;;;;;;5024225;28;20197;-69
2021/10/24 02:51:46;;;;;;;28.42;26.70;;;3.20;91.80;;;;;;5029023;28;20337;-69
2021/10/24 02:54:13;;;;;;;28.33;26.42;;;3.10;91.80;;;;;;5025989;28;20643;-69
2021/10/24 02:56:39;;;;;;;28.70;26.70;;;3.10;92.00;;;;;;5027031;28;20209;-69
2021/10/24 02:59:06;;;;;;;28.63;26.67;;;3.20;91.80;;;;;;5026754;28;20193;-68
2021/10/24 03:01:33;;;;;;;28.20;26.30;;;3.10;91.70;;;;;;5027958;28;20321;-70
2021/10/24 03:04:02;;;;;;;28.83;26.20;;;3.10;92.00;;;;;;5022769;28;20201;-70
2021/10/24 03:06:29;;;;;;;29.75;27.65;;;3.10;92.20;;;;;;5028058;28;20228;-70
2021/10/24 03:08:56;;;;;;;27.30;25.50;;;3.10;92.00;;;;;;5026597;28;20204;-71
2021/10/24 03:11:23;;;;;;;29.85;27.65;;;3.10;92.30;;;;;;5024508;28;20317;-70
2021/10/24 03:13:50;;;;;;;27.27;25.38;;;3.10;92.30;;;;;;5027394;28;20310;-70
2021/10/24 03:16:17;;;;;;;28.38;26.15;;;3.00;92.20;;;;;;5028680;28;20300;-70
2021/10/24 03:18:44;;;;;;;29.25;26.50;;;3.10;92.50;;;;;;5027130;28;20723;-70
2021/10/24 03:21:12;;;;;;;27.48;25.50;;;3.10;92.10;;;;;;5027467;28;20221;-70
2021/10/24 03:23:39;;;;;;;28.35;26.25;;;3.00;92.00;;;;;;5026961;28;20196;-70
2021/10/24 03:26:06;;;;;;;28.70;26.70;;;3.00;92.20;;;;;;5027823;28;20205;-70
2021/10/24 03:28:34;;;;;;;28.63;26.45;;;3.10;92.00;;;;;;5025047;28;20285;-70
2021/10/24 03:31:01;;;;;;;28.45;26.45;;;3.00;92.20;;;;;;5027696;28;20812;-71
2021/10/24 03:33:28;;;;;;;33.78;31.58;;;3.00;93.20;;;;;;5025217;28;20197;-70
2021/10/24 03:35:55;;;;;;;31.17;28.98;;;3.00;92.30;;;;;;5027666;28;20201;-70
2021/10/24 03:38:23;;;;;;;30.13;28.02;;;3.00;92.20;;;;;;5025518;28;20559;-70
2021/10/24 03:40:50;;;;;;;27.67;25.85;;;3.00;91.90;;;;;;5027967;28;20205;-70
2021/10/24 03:43:17;;;;;;;27.73;25.92;;;2.90;91.80;;;;;;5023606;28;20201;-70
2021/10/24 03:45:44;;;;;;;28.23;26.20;;;2.80;92.40;;;;;;5020296;28;20300;-70
2021/10/24 03:48:11;;;;;;;27.60;25.85;;;2.80;92.80;;;;;;5026259;28;20208;-70
2021/10/24 03:50:38;;;;;;;27.20;25.38;;;2.80;94.70;;;;;;5027979;28;20227;-70
2021/10/24 03:53:05;;;;;;;26.30;24.42;;;2.90;93.60;;;;;;5025081;28;20249;-70
2021/10/24 03:55:33;;;;;;;27.77;25.55;;;2.90;92.60;;;;;;5023622;28;20196;-70
2021/10/24 03:58:00;;;;;;;28.52;26.52;;;2.90;92.70;;;;;;5026687;28;20197;-70
2021/10/24 04:00:27;;;;;;;29.63;27.25;;;2.90;92.50;;;;;;5023360;28;20717;-70
2021/10/24 04:02:55;;;;;;;28.10;25.90;;;2.90;92.60;;;;;;5026175;28;20877;-70
2021/10/24 04:05:23;;;;;;;28.75;26.63;;;2.80;92.50;;;;;;5023196;28;20201;-70
2021/10/24 04:07:50;;;;;;;29.85;26.08;;;2.80;92.40;;;;;;5024666;28;20201;-70
2021/10/24 04:10:18;;;;;;;28.42;26.52;;;2.70;92.30;;;;;;5026525;28;20213;-70
2021/10/24 04:12:46;;;;;;;27.30;25.30;;;2.70;92.50;;;;;;5027004;28;20320;-70
2021/10/24 04:15:14;;;;;;;337.30;59.22;;;2.70;93.00;;;;;;5022431;28;20189;-70
2021/10/24 04:17:41;;;;;;;479.98;71.07;;;2.70;93.10;;;;;;5027665;28;20690;-70
2021/10/24 04:20:11;;;;;;;28.38;26.25;;;2.70;93.70;;;;;;5024523;28;20197;-70
2021/10/24 04:22:39;;;;;;;27.83;25.95;;;2.70;93.60;;;;;;5026838;28;20312;-69
2021/10/24 04:25:10;;;;;;;28.52;26.33;;;2.80;92.60;;;;;;5022185;28;20205;-69
2021/10/24 04:27:37;;;;;;;29.10;27.00;;;2.90;92.40;;;;;;5026525;28;20216;-69
2021/10/24 04:30:08;;;;;;;27.95;25.95;;;2.80;92.10;;;;;;5025345;28;20221;-69
2021/10/24 04:32:36;;;;;;;70.97;32.00;;;2.80;92.30;;;;;;5026948;28;20217;-69
2021/10/24 04:35:03;;;;;;;1425.47;188.00;;;2.70;92.40;;;;;;5026108;28;20300;-69
2021/10/24 04:37:30;;;;;;;29.42;27.38;;;2.70;96.00;;;;;;5025515;28;20201;-69
2021/10/24 04:39:57;;;;;;;28.65;26.23;;;2.80;98.10;;;;;;5025408;28;20201;-69
2021/10/24 04:42:24;;;;;;;28.73;26.15;;;2.80;96.70;;;;;;5026577;28;20278;-69
2021/10/24 04:44:51;;;;;;;27.35;25.33;;;2.80;95.60;;;;;;5024540;28;20201;-69
2021/10/24 04:47:19;;;;;;;27.27;25.58;;;2.90;95.30;;;;;;5027350;28;20555;-69
2021/10/24 04:49:46;;;;;;;27.85;26.08;;;2.80;93.60;;;;;;5020056;28;20268;-68
2021/10/24 04:52:14;;;;;;;28.80;26.60;;;2.80;93.30;;;;;;5026800;28;20650;-68
2021/10/24 04:54:41;;;;;;;27.85;25.90;;;2.60;93.30;;;;;;5022009;28;20671;-69
2021/10/24 04:57:07;;;;;;;27.70;25.88;;;2.60;93.50;;;;;;5025159;28;20194;-69
2021/10/24 04:59:34;;;;;;;27.83;25.85;;;2.60;93.30;;;;;;5024612;28;20284;-69
2021/10/24 05:02:01;;;;;;;28.15;25.98;;;2.60;93.20;;;;;;5025723;28;20212;-69
2021/10/24 05:04:30;;;;;;;28.15;26.25;;;2.50;92.80;;;;;;5021067;28;20324;-69
2021/10/24 05:06:56;;;;;;;27.05;25.13;;;2.40;93.10;;;;;;5026502;28;20685;-69
2021/10/24 05:09:23;;;;;;;28.58;26.58;;;2.50;93.20;;;;;;5022607;28;20699;-68
2021/10/24 05:11:50;;;;;;;29.02;26.83;;;2.50;92.90;;;;;;5028574;28;20588;-69
2021/10/24 05:14:17;;;;;;;28.67;26.48;;;2.40;92.70;;;;;;5023364;28;20201;-68
2021/10/24 05:16:44;;;;;;;28.60;26.70;;;2.30;92.90;;;;;;5030316;28;20613;-69
2021/10/24 05:19:11;;;;;;;28.55;26.65;;;2.40;93.20;;;;;;5028373;28;20212;-69
2021/10/24 05:21:39;;;;;;;28.65;26.73;;;2.40;92.90;;;;;;5031178;28;20603;-69
2021/10/24 05:24:06;;;;;;;29.05;26.90;;;2.50;92.70;;;;;;5028384;28;20229;-69
2021/10/24 05:26:33;;;;;;;29.08;27.02;;;2.50;92.50;;;;;;5029969;28;20614;-69
2021/10/24 05:29:00;;;;;;;28.98;26.85;;;2.50;92.30;;;;;;5029761;28;20221;-69
2021/10/24 05:31:27;;;;;;;27.88;25.67;;;2.60;91.90;;;;;;5028598;28;20690;-68
2021/10/24 05:33:54;;;;;;;27.33;25.50;;;2.40;92.00;;;;;;5022192;28;20201;-68
2021/10/24 05:36:21;;;;;;;28.45;26.40;;;2.40;92.50;;;;;;5030085;28;20193;-68
2021/10/24 05:38:50;;;;;;;29.83;27.60;;;2.40;92.70;;;;;;5029448;28;20622;-70
2021/10/24 05:41:17;;;;;;;28.98;26.98;;;2.40;92.70;;;;;;5029280;28;20217;-70
2021/10/24 05:43:44;;;;;;;29.08;27.08;;;2.40;92.90;;;;;;5024063;28;20221;-70
2021/10/24 05:46:11;;;;;;;29.65;27.52;;;2.40;92.80;;;;;;5029755;28;20207;-70
2021/10/24 05:48:38;;;;;;;30.27;27.92;;;2.30;92.70;;;;;;5027311;28;20280;-70
2021/10/24 05:51:05;;;;;;;29.38;27.30;;;2.40;92.60;;;;;;5029605;28;20699;-70
2021/10/24 05:53:32;;;;;;;29.30;27.20;;;2.40;92.60;;;;;;5024932;28;20202;-70
2021/10/24 05:56:01;;;;;;;29.17;27.27;;;2.30;92.70;;;;;;5030010;28;20248;-69
2021/10/24 05:58:28;;;;;;;28.33;26.25;;;2.20;92.90;;;;;;5025812;28;20667;-70
2021/10/24 06:00:55;;;;;;;29.42;27.23;;;2.30;92.90;;;;;;5028810;28;20207;-70
2021/10/24 06:03:21;;;;;;;28.25;26.20;;;2.40;92.80;;;;;;5022441;28;20197;-70
2021/10/24 06:05:48;;;;;;;27.75;25.95;;;2.40;92.80;;;;;;5027952;28;20308;-70
2021/10/24 06:08:22;;;;;;;28.55;26.75;;;2.40;92.60;;;;;;5026844;28;20197;-70
2021/10/24 06:10:49;;;;;;;28.05;26.25;;;2.40;92.50;;;;;;5026772;28;20723;-70
2021/10/24 06:13:18;;;;;;;28.35;26.20;;;2.40;92.10;;;;;;5026752;28;20205;-70
2021/10/24 06:15:45;;;;;;;27.27;25.38;;;2.40;92.40;;;;;;5026451;28;20205;-68
2021/10/24 06:18:12;;;;;;;28.55;26.50;;;2.40;92.40;;;;;;5027327;28;20292;-68
2021/10/24 06:20:40;;;;;;;29.23;27.17;;;2.40;92.50;;;;;;5028510;28;20185;-69
2021/10/24 06:23:07;;;;;;;29.08;27.08;;;2.50;92.50;;;;;;5024514;28;20221;-68
2021/10/24 06:25:34;;;;;;;26.65;24.83;;;2.50;92.30;;;;;;5024826;28;20217;-75
2021/10/24 06:28:01;;;;;;;27.17;25.35;;;2.50;92.50;;;;;;5027078;28;20560;-70
2021/10/24 06:30:29;;;;;;;27.52;25.52;;;2.80;92.20;;;;;;5029202;28;20214;-68
2021/10/24 06:32:56;;;;;;;27.42;25.55;;;2.80;91.40;;;;;;5028673;28;20558;-68
2021/10/24 06:35:23;;;;;;;27.45;25.35;;;2.70;91.60;;;;;;5025972;28;20760;-68
2021/10/24 06:37:50;;;;;;;27.70;25.70;;;2.70;91.60;;;;;;5028420;28;20320;-70
2021/10/24 06:40:18;;;;;;;30.88;28.67;;;2.80;91.60;;;;;;5025399;28;20292;-68
2021/10/24 06:42:45;;;;;;;27.83;25.92;;;2.80;92.70;;;;;;5023370;28;20613;-69
2021/10/24 06:45:12;;;;;;;28.30;26.20;;;2.80;91.90;;;;;;5019196;28;20208;-69
2021/10/24 06:47:41;;;;;;;98.60;29.48;;;2.90;91.90;;;;;;5022046;28;20281;-68
2021/10/24 06:50:10;;;;;;;30.90;28.70;;;2.90;91.60;;;;;;5020292;28;20572;-68
2021/10/24 06:52:37;;;;;;;27.70;25.70;;;2.90;91.50;;;;;;5026794;28;20735;-68
2021/10/24 06:55:05;;;;;;;27.67;25.58;;;2.90;91.50;;;;;;5024202;28;20644;-69
2021/10/24 06:57:34;;;;;;;28.75;26.85;;;2.90;91.60;;;;;;5020538;28;20200;-70
2021/10/24 07:00:01;;;;;;;167.75;42.10;;;3.00;91.50;;;;;;5026247;28;20280;-70
2021/10/24 07:02:28;;;;;;;28.88;26.88;;;3.00;92.80;;;;;;5026866;28;20213;-71
2021/10/24 07:04:57;;;;;;;27.10;25.00;;;3.20;92.50;;;;;;5025421;28;20197;-71
2021/10/24 07:07:24;;;;;;;29.95;27.67;;;3.30;91.30;;;;;;5028123;28;20671;-71
2021/10/24 07:09:51;;;;;;;25.63;24.02;;;3.30;90.80;;;;;;5023296;28;20697;-71
2021/10/24 07:12:18;;;;;;;26.98;25.17;;;3.30;91.00;;;;;;5021303;28;20308;-71
2021/10/24 07:14:45;;;;;;;27.25;25.25;;;3.40;91.00;;;;;;5025501;28;20572;-71
2021/10/24 07:17:12;;;;;;;27.48;25.58;;;3.50;90.70;;;;;;5028046;28;20197;-72
2021/10/24 07:19:40;;;;;;;27.15;25.23;;;3.60;90.40;;;;;;5021996;28;20229;-71
2021/10/24 07:22:08;;;;;;;27.70;25.85;;;3.70;90.20;;;;;;5024736;28;20209;-70
2021/10/24 07:24:35;;;;;;;28.00;26.10;;;3.70;89.90;;;;;;5018298;28;20193;-68
2021/10/24 07:27:02;;;;;;;27.13;24.95;;;3.90;89.90;;;;;;5023817;28;20201;-69
2021/10/24 07:29:29;;;;;;;27.48;25.38;;;4.00;89.60;;;;;;5019159;28;20207;-69
2021/10/24 07:31:56;;;;;;;28.08;26.08;;;4.10;89.30;;;;;;5027387;28;20224;-69
2021/10/24 07:34:24;;;;;;;25.98;24.27;;;4.20;89.20;;;;;;5025497;28;20200;-69
2021/10/24 07:36:51;;;;;;;26.08;24.48;;;4.30;89.00;;;;;;5023173;28;20212;-69
2021/10/24 07:39:19;;;;;;;27.38;25.35;;;4.40;88.70;;;;;;5024901;28;20209;-69
2021/10/24 07:41:46;;;;;;;26.55;24.85;;;4.50;88.50;;;;;;5027639;28;20252;-70
2021/10/24 07:44:14;;;;;;;27.63;25.52;;;4.60;88.40;;;;;;5026087;28;20651;-69
2021/10/24 07:46:41;;;;;;;26.95;24.90;;;4.80;88.30;;;;;;5024908;28;20257;-70
2021/10/24 07:49:08;;;;;;;27.02;25.25;;;4.90;88.00;;;;;;5023090;28;20204;-70
2021/10/24 07:51:35;;;;;;;26.15;24.40;;;4.90;87.80;;;;;;5025501;28;20217;-70
2021/10/24 07:54:03;;;;;;;26.85;24.95;;;5.00;87.70;;;;;;5025570;28;20288;-70
2021/10/24 07:56:33;;;;;;;26.45;24.55;;;5.00;87.70;;;;;;5031821;28;20789;-70
2021/10/24 07:59:01;;;;;;;27.02;25.23;;;5.00;87.80;;;;;;5025864;28;20247;-72
2021/10/24 08:01:28;;;;;;;26.58;24.52;;;5.10;87.70;;;;;;5029431;28;20302;-70
2021/10/24 08:03:55;;;;;;;26.73;24.85;;;5.20;87.90;;;;;;5022900;28;20207;-68
2021/10/24 08:06:23;;;;;;;27.17;25.15;;;5.40;87.70;;;;;;5018697;28;20215;-69
2021/10/24 08:08:50;;;;;;;27.17;24.95;;;5.40;87.00;;;;;;5029549;28;20260;-70
2021/10/24 08:11:17;;;;;;;26.08;24.40;;;5.50;86.90;;;;;;5023374;28;20222;-69
2021/10/24 08:13:46;;;;;;;27.83;25.88;;;5.70;86.70;;;;;;5023035;28;20200;-69
2021/10/24 08:16:13;;;;;;;27.55;25.45;;;5.80;86.30;;;;;;5026405;28;20288;-69
2021/10/24 08:18:40;;;;;;;25.20;23.40;;;5.90;86.40;;;;;;5025667;28;20567;-69
2021/10/24 08:21:08;;;;;;;27.05;25.35;;;6.00;86.40;;;;;;5028750;28;20218;-69
2021/10/24 08:23:35;;;;;;;29.55;27.45;;;6.10;86.20;;;;;;5024182;28;20208;-69
2021/10/24 08:26:02;;;;;;;27.27;25.48;;;6.20;86.40;;;;;;5026976;28;20199;-69
2021/10/24 08:28:29;;;;;;;26.58;24.77;;;6.40;85.90;;;;;;5020186;28;20258;-69
2021/10/24 08:30:58;;;;;;;27.35;25.55;;;6.50;85.70;;;;;;5024545;28;20295;-69
2021/10/24 08:33:25;;;;;;;26.70;24.67;;;6.70;85.50;;;;;;5023829;28;20198;-69
2021/10/24 08:35:52;;;;;;;28.23;26.30;;;6.90;84.90;;;;;;5027180;28;20282;-68
2021/10/24 08:38:19;;;;;;;28.17;26.17;;;7.00;84.30;;;;;;5021625;28;20281;-68
2021/10/24 08:40:47;;;;;;;26.40;24.60;;;7.20;83.60;;;;;;5020745;28;20211;-68
2021/10/24 08:43:17;;;;;;;27.30;25.20;;;7.30;82.60;;;;;;5021441;28;20225;-69
2021/10/24 08:45:46;;;;;;;29.23;26.92;;;7.40;81.60;;;;;;5023709;28;20212;-69
2021/10/24 08:48:16;;;;;;;29.20;27.20;;;7.60;81.50;;;;;;5023043;28;20216;-70
2021/10/24 08:50:45;;;;;;;28.00;25.85;;;7.80;80.70;;;;;;5030826;28;20212;-69
2021/10/24 08:53:13;;;;;;;26.58;24.52;;;7.90;80.10;;;;;;5023558;28;20233;-69
2021/10/24 08:55:42;;;;;;;26.17;24.50;;;8.00;79.90;;;;;;5032904;28;20229;-69
2021/10/24 08:58:10;;;;;;;26.40;24.70;;;8.20;79.30;;;;;;5028963;28;20766;-69
2021/10/24 09:00:37;;;;;;;27.92;26.33;;;8.20;78.40;;;;;;5028832;28;20550;-69
2021/10/24 09:03:09;;;;;;;29.90;27.85;;;8.30;78.00;;;;;;5030034;28;20220;-70
2021/10/24 09:05:40;;;;;;;27.52;25.52;;;8.30;77.60;;;;;;5030989;28;20194;-69
2021/10/24 09:08:08;;;;;;;29.52;27.33;;;8.40;77.30;;;;;;5029857;28;20197;-69
2021/10/24 09:10:37;;;;;;;27.35;25.48;;;8.60;77.00;;;;;;5028807;28;20197;-69
2021/10/24 09:13:06;;;;;;;27.90;26.20;;;8.60;76.70;;;;;;5027668;28;20252;-70
2021/10/24 09:16:01;;;;;;;29.85;27.95;;;8.80;76.60;;;;;;5031362;28;20216;-69
2021/10/24 09:18:33;;;;;;;29.02;27.13;;;8.90;76.00;;;;;;4993809;28;20204;-69
2021/10/24 09:21:23;;;;;;;29.27;27.33;;;9.00;75.50;;;;;;5029400;28;20198;-69
2021/10/24 09:23:51;;;;;;;27.35;25.40;;;9.10;75.20;;;;;;5028619;28;20733;-69
2021/10/24 09:26:23;;;;;;;28.40;26.15;;;9.20;75.20;;;;;;5036369;28;20208;-69
2021/10/24 09:29:04;;;;;;;26.65;25.02;;;9.30;74.50;;;;;;5028001;28;20229;-71
2021/10/24 09:31:33;;;;;;;28.87;27.10;;;9.40;74.60;;;;;;5034055;28;20225;-69
2021/10/24 09:34:15;;;;;;;27.50;25.83;;;9.50;74.30;;;;;;5025894;28;20456;-69
2021/10/24 09:36:54;;;;;;;27.83;26.02;;;9.50;74.20;;;;;;5021445;28;20553;-69
2021/10/24 09:39:21;;;;;;;27.83;26.13;;;9.60;73.80;;;;;;5026255;28;20658;-69
2021/10/24 09:41:49;;;;;;;26.40;24.77;;;9.70;73.60;;;;;;5023300;28;20487;-69
2021/10/24 09:44:22;;;;;;;29.07;27.07;;;9.80;73.70;;;;;;5022837;28;20970;-69
2021/10/24 09:46:51;;;;;;;28.52;26.60;;;9.90;73.30;;;;;;5020326;28;20460;-70
2021/10/24 09:49:20;;;;;;;29.20;27.07;;;10.00;72.90;;;;;;5024024;28;20193;-68
2021/10/24 09:51:47;;;;;;;27.67;26.03;;;10.10;72.70;;;;;;5024615;28;20988;-67
2021/10/24 09:54:23;;;;;;;28.40;26.60;;;10.20;72.60;;;;;;5026278;28;20470;-67
2021/10/24 09:56:51;;;;;;;27.57;25.77;;;10.40;71.70;;;;;;5025334;28;20478;-67
2021/10/24 09:59:19;;;;;;;29.57;27.50;;;10.40;71.50;;;;;;5022645;28;20456;-73
2021/10/24 10:01:48;;;;;;;26.93;25.03;;;10.50;71.50;;;;;;5026356;28;20566;-68
2021/10/24 10:04:15;;;;;;;26.30;24.73;;;10.60;71.80;;;;;;5022970;28;20460;-69
2021/10/24 10:06:44;;;;;;;31.73;28.57;;;10.80;71.30;;;;;;5023289;28;20460;-69
2021/10/24 10:09:13;;;;;;;26.90;24.90;;;10.90;71.20;;;;;;5027991;28;20478;-70
2021/10/24 10:11:48;;;;;;;25.20;23.70;;;11.00;70.90;;;;;;5026200;28;20484;-70
2021/10/24 10:14:22;;;;;;;25.57;23.97;;;11.10;70.50;;;;;;5027111;28;20455;-70
2021/10/24 10:16:53;;;;;;;24.37;22.87;;;11.10;69.60;;;;;;5025774;28;20460;-69
2021/10/24 10:19:30;;;;;;;26.20;24.70;;;11.20;69.50;;;;;;5027211;28;20454;-70
2021/10/24 10:21:57;;;;;;;25.30;23.50;;;11.30;69.00;;;;;;5030456;28;20481;-70
2021/10/24 10:24:45;;;;;;;27.10;25.27;;;11.40;68.50;;;;;;5027583;28;21321;-70
2021/10/24 10:27:39;;;;;;;27.43;25.73;;;11.50;68.40;;;;;;5026868;28;20981;-70
2021/10/24 10:30:09;;;;;;;27.13;25.33;;;11.50;68.50;;;;;;5025473;28;20543;-70
2021/10/24 10:32:37;;;;;;;27.70;26.00;;;11.60;68.90;;;;;;5024112;28;20491;-70
2021/10/24 10:35:10;;;;;;;27.07;25.57;;;11.70;68.50;;;;;;5028093;28;20954;-69
2021/10/24 10:37:52;;;;;;;28.03;26.07;;;11.90;67.70;;;;;;5025662;28;20962;-70
2021/10/24 10:40:22;;;;;;;25.77;24.17;;;12.00;67.60;;;;;;5027367;28;20521;-70
2021/10/24 10:42:58;;;;;;;26.43;24.90;;;12.00;67.30;;;;;;5028778;28;20721;-70
2021/10/24 10:45:44;;;;;;;26.20;24.60;;;12.10;67.30;;;;;;5026634;28;20461;-70
2021/10/24 10:48:25;;;;;;;26.20;24.50;;;12.10;66.90;;;;;;5024655;28;20454;-71
2021/10/24 10:51:00;;;;;;;25.90;24.37;;;12.20;67.10;;;;;;5022377;28;20656;-69
2021/10/24 10:53:50;;;;;;;27.30;25.80;;;12.20;66.80;;;;;;5021537;28;20892;-70
2021/10/24 10:56:23;;;;;;;29.10;27.00;;;12.40;67.20;;;;;;5021397;28;20465;-70
2021/10/24 10:58:53;;;;;;;28.13;26.10;;;12.40;66.80;;;;;;5024966;28;20491;-70
2021/10/24 11:01:29;;;;;;;27.00;25.33;;;12.50;66.40;;;;;;5031951;28;20475;-69
2021/10/24 11:03:59;;;;;;;26.70;25.20;;;12.50;66.60;;;;;;5035230;28;21018;-70
2021/10/24 11:06:52;;;;;;;27.53;25.53;;;12.50;66.60;;;;;;5023426;28;20550;-68
2021/10/24 11:09:48;;;;;;;26.90;25.20;;;12.60;66.30;;;;;;5022015;28;21005;-68
2021/10/24 11:12:36;;;;;;;26.77;25.17;;;12.70;65.90;;;;;;5022076;28;20483;-68
2021/10/24 11:15:10;;;;;;;26.47;24.77;;;12.70;66.10;;;;;;5027502;28;20460;-68
2021/10/24 11:17:39;;;;;;;26.13;24.53;;;12.80;66.00;;;;;;5024849;28;20483;-68
2021/10/24 11:20:34;;;;;;;26.13;24.67;;;12.80;65.90;;;;;;5027331;28;20455;-68
2021/10/24 11:23:03;;;;;;;27.50;25.70;;;12.90;65.90;;;;;;5025867;28;20479;-68
2021/10/24 11:25:33;;;;;;;26.70;25.10;;;13.00;65.10;;;;;;5027118;28;20460;-68
2021/10/24 11:28:07;;;;;;;26.03;24.57;;;13.10;64.80;;;;;;5023973;28;20459;-67
2021/10/24 11:30:37;;;;;;;26.70;24.97;;;13.10;64.40;;;;;;5021455;28;20462;-68
2021/10/24 11:33:05;;;;;;;26.80;25.20;;;13.20;64.60;;;;;;5022797;28;20981;-68
2021/10/24 11:35:34;;;;;;;26.03;24.33;;;13.20;64.50;;;;;;5015227;28;21021;-68
2021/10/24 11:38:05;;;;;;;25.70;24.13;;;13.30;64.50;;;;;;5021867;28;20555;-68
2021/10/24 11:40:35;;;;;;;26.80;25.20;;;13.40;64.30;;;;;;5015790;28;20464;-69
2021/10/24 11:43:05;;;;;;;28.17;25.93;;;13.50;64.10;;;;;;5022344;28;20491;-69
2021/10/24 11:45:36;;;;;;;28.27;26.57;;;13.50;64.20;;;;;;5017825;28;20464;-68
2021/10/24 11:48:06;;;;;;;25.80;24.20;;;13.60;64.10;;;;;;5022045;28;20464;-68
2021/10/24 11:50:53;;;;;;;28.40;26.70;;;13.60;63.40;;;;;;5017924;28;20523;-69
2021/10/24 11:53:25;;;;;;;25.83;24.23;;;13.60;63.00;;;;;;5023675;28;20472;-68
2021/10/24 11:55:53;;;;;;;26.77;25.03;;;13.60;63.00;;;;;;5019325;28;20482;-72
2021/10/24 11:58:32;;;;;;;26.77;25.07;;;13.70;63.30;;;;;;5020423;28;20552;-69
2021/10/24 12:01:12;;;;;;;26.00;24.40;;;13.70;63.30;;;;;;5013437;28;20839;-68
2021/10/24 12:03:45;;;;;;;25.33;23.87;;;13.70;63.10;;;;;;5015009;28;20467;-69
2021/10/24 12:06:13;;;;;;;25.67;24.17;;;13.80;62.70;;;;;;5018661;28;20463;-69
2021/10/24 12:08:51;;;;;;;25.20;23.80;;;13.90;62.70;;;;;;5021675;28;20491;-69
2021/10/24 12:11:21;;;;;;;25.03;23.57;;;14.00;62.60;;;;;;5018621;28;20490;-69
2021/10/24 12:13:52;;;;;;;25.80;24.00;;;14.00;62.40;;;;;;5015115;28;20491;-69
2021/10/24 12:16:33;;;;;;;26.20;24.60;;;14.10;62.20;;;;;;5019081;28;20489;-68
2021/10/24 12:19:20;;;;;;;26.80;25.27;;;14.20;62.00;;;;;;5023223;28;20828;-69
2021/10/24 12:22:07;;;;;;;25.20;23.73;;;14.20;61.80;;;;;;5023120;28;20854;-69
2021/10/24 12:24:46;;;;;;;27.10;25.30;;;14.30;61.40;;;;;;5022987;28;20463;-70
2021/10/24 12:27:27;;;;;;;27.30;25.70;;;14.30;61.60;;;;;;5018235;28;20452;-70
2021/10/24 12:29:59;;;;;;;26.50;24.83;;;14.40;62.50;;;;;;5016614;28;20569;-69
2021/10/24 12:32:29;;;;;;;26.40;24.80;;;14.40;61.70;;;;;;5013138;28;21005;-69
2021/10/24 12:35:01;;;;;;;26.67;25.17;;;14.40;61.30;;;;;;5022073;28;20979;-70
2021/10/24 12:37:28;;;;;;;25.40;24.00;;;14.50;61.20;;;;;;5021166;28;20540;-70
2021/10/24 12:40:18;;;;;;;26.40;24.70;;;14.60;61.20;;;;;;5026276;28;20813;-70
2021/10/24 12:42:59;;;;;;;26.53;24.70;;;14.60;61.30;;;;;;5022439;28;20484;-69
2021/10/24 12:45:26;;;;;;;26.70;24.80;;;14.60;61.20;;;;;;5023626;28;20475;-69